createdAt,value
2022-12-23T00:01:04.050Z,2.13
2022-12-23T00:03:54.600Z,2.12
2022-12-23T00:06:45.318Z,2.14
2022-12-23T00:09:35.823Z,2.14
2022-12-23T00:12:44.008Z,2.16
2022-12-23T00:15:34.613Z,2.21
2022-12-23T00:18:25.247Z,2.26
2022-12-23T00:21:16.794Z,2.29
2022-12-23T00:24:07.775Z,2.33
2022-12-23T00:26:58.351Z,2.35
2022-12-23T00:29:48.912Z,2.36
2022-12-23T00:32:39.785Z,2.36
2022-12-23T00:35:34.520Z,2.35
2022-12-23T00:38:38.888Z,2.35
2022-12-23T00:41:47.008Z,2.37
2022-12-23T00:44:37.642Z,2.37
2022-12-23T00:47:45.816Z,2.39
2022-12-23T00:50:37.452Z,2.41
2022-12-23T00:53:28.260Z,2.43
2022-12-23T00:56:18.875Z,2.44
2022-12-23T00:59:09.484Z,2.46
2022-12-23T01:02:17.632Z,2.48
2022-12-23T01:05:40.191Z,2.47
2022-12-23T01:08:30.957Z,2.41
2022-12-23T01:11:21.651Z,2.33
2022-12-23T01:14:13.055Z,2.29
2022-12-23T01:17:03.831Z,2.27
2022-12-23T01:19:54.517Z,2.25
2022-12-23T01:22:45.028Z,2.25
2022-12-23T01:25:37.770Z,2.25
2022-12-23T01:28:28.871Z,2.25
2022-12-23T01:31:19.309Z,2.26
2022-12-23T01:34:10.617Z,2.29
2022-12-23T01:37:01.306Z,2.32
2022-12-23T01:39:51.812Z,2.37
2022-12-23T01:42:45.172Z,2.44
2022-12-23T01:45:35.807Z,2.50
2022-12-23T01:48:27.884Z,2.54
2022-12-23T01:51:21.369Z,2.57
2022-12-23T01:54:11.630Z,2.61
2022-12-23T01:57:01.847Z,2.68
2022-12-23T02:00:09.697Z,2.73
2022-12-23T02:07:05.136Z,2.81
2022-12-23T02:09:55.515Z,2.87
2022-12-23T02:12:47.809Z,2.91
2022-12-23T02:15:58.587Z,2.95
2022-12-23T02:23:14.667Z,3.05
2022-12-23T02:26:16.062Z,3.09
2022-12-23T02:29:21.583Z,3.12
2022-12-23T02:32:16.357Z,3.15
2022-12-23T02:35:12.509Z,3.19
2022-12-23T02:38:06.127Z,3.22
2022-12-23T02:41:00.381Z,3.24
2022-12-23T02:43:53.036Z,3.24
2022-12-23T02:46:47.616Z,3.23
2022-12-23T02:49:40.943Z,3.22
2022-12-23T02:52:34.165Z,3.22
2022-12-23T02:55:30.886Z,3.21
2022-12-23T02:58:22.431Z,3.19
2022-12-23T03:01:15.033Z,3.17
2022-12-23T03:04:06.848Z,3.17
2022-12-23T03:07:04.463Z,3.19
2022-12-23T03:10:04.657Z,3.23
2022-12-23T03:13:03.289Z,3.31
2022-12-23T03:15:57.547Z,3.38
2022-12-23T03:18:54.019Z,3.44
2022-12-23T03:21:48.416Z,3.51
2022-12-23T03:24:42.925Z,3.58
2022-12-23T03:27:37.450Z,3.65
2022-12-23T03:30:29.058Z,3.72
2022-12-23T03:33:21.438Z,3.79
2022-12-23T03:36:15.131Z,3.85
2022-12-23T03:39:07.257Z,3.92
2022-12-23T03:42:00.431Z,3.96
2022-12-23T03:45:28.069Z,3.99
2022-12-23T03:48:05.443Z,4.03
2022-12-23T03:50:59.383Z,4.05
2022-12-23T03:53:53.061Z,4.08
2022-12-23T03:56:45.889Z,4.11
2022-12-23T03:59:37.668Z,4.14
2022-12-23T04:02:34.166Z,4.17
2022-12-23T04:05:27.599Z,4.21
2022-12-23T04:08:21.442Z,4.26
2022-12-23T04:11:12.769Z,4.33
2022-12-23T04:14:05.578Z,4.38
2022-12-23T04:16:58.427Z,4.45
2022-12-23T04:19:49.066Z,4.49
2022-12-23T04:22:39.743Z,4.52
2022-12-23T04:25:30.175Z,4.55
2022-12-23T04:28:21.329Z,4.58
2022-12-23T04:31:11.819Z,4.61
2022-12-23T04:34:02.143Z,4.64
2022-12-23T04:36:52.771Z,4.68
2022-12-23T04:39:43.240Z,4.71
2022-12-23T04:42:33.897Z,4.75
2022-12-23T04:45:24.457Z,4.78
2022-12-23T04:48:15.031Z,4.80
2022-12-23T04:51:05.823Z,4.82
2022-12-23T04:53:56.917Z,4.84
2022-12-23T04:56:47.424Z,4.85
2022-12-23T04:59:38.027Z,4.88
2022-12-23T05:02:28.906Z,4.95
2022-12-23T05:05:19.740Z,5.03
2022-12-23T05:08:10.036Z,5.13
2022-12-23T05:11:00.931Z,5.20
2022-12-23T05:13:51.384Z,5.29
2022-12-23T05:16:41.869Z,5.37
2022-12-23T05:19:33.231Z,5.42
2022-12-23T05:22:23.883Z,5.48
2022-12-23T05:25:15.996Z,5.51
2022-12-23T05:28:08.135Z,5.54
2022-12-23T05:31:00.996Z,5.60
2022-12-23T05:33:51.538Z,5.65
2022-12-23T05:36:51.188Z,5.71
2022-12-23T05:39:41.763Z,5.78
2022-12-23T05:42:34.521Z,5.86
2022-12-23T05:45:25.210Z,5.96
2022-12-23T05:48:28.984Z,6.03
2022-12-23T05:51:19.653Z,6.10
2022-12-23T05:59:12.639Z,6.22
2022-12-23T06:02:03.196Z,6.26
2022-12-23T06:04:57.494Z,6.30
2022-12-23T06:07:48.110Z,6.34
2022-12-23T06:14:54.215Z,6.40
2022-12-23T06:18:22.399Z,6.43
2022-12-23T06:21:14.803Z,6.45
2022-12-23T06:24:21.128Z,6.47
2022-12-23T06:27:12.217Z,6.49
2022-12-23T06:34:30.755Z,6.53
2022-12-23T06:37:21.392Z,6.56
2022-12-23T06:40:17.108Z,6.57
2022-12-23T06:43:11.023Z,6.59
2022-12-23T06:55:59.025Z,6.66
2022-12-23T06:58:49.573Z,6.69
2022-12-23T07:32:44.427Z,6.80
2022-12-23T07:36:00.343Z,6.79
2022-12-23T07:38:52.580Z,6.79
2022-12-23T07:42:33.920Z,6.77
2022-12-23T07:45:31.526Z,6.76
2022-12-23T07:52:27.198Z,6.71
2022-12-23T07:56:06.073Z,6.68
2022-12-23T07:58:56.821Z,6.64
2022-12-23T08:02:09.652Z,6.61
2022-12-23T08:05:04.120Z,6.58
2022-12-23T08:12:49.320Z,6.53
2022-12-23T08:16:18.331Z,6.50
2022-12-23T10:26:52.917Z,7.06
2022-12-23T10:29:43.918Z,7.08
2022-12-23T10:37:31.190Z,7.21
2022-12-23T10:40:25.311Z,7.24
2022-12-23T10:43:20.301Z,7.26
2022-12-23T10:46:16.787Z,7.29
2022-12-23T10:49:15.769Z,7.31
2022-12-23T10:52:10.349Z,7.32
2022-12-23T10:55:01.007Z,7.34
2022-12-23T10:57:55.627Z,7.36
2022-12-23T11:18:22.945Z,7.53
2022-12-23T11:21:44.558Z,7.55
2022-12-23T11:24:42.749Z,7.58
2022-12-23T11:28:59.897Z,7.60
2022-12-23T11:31:53.971Z,7.62
2022-12-23T11:34:46.994Z,7.68
2022-12-23T11:37:42.304Z,7.72
2022-12-23T11:40:35.424Z,7.73
2022-12-23T11:43:27.425Z,7.75
2022-12-23T11:46:25.470Z,7.77
2022-12-23T11:49:18.647Z,7.79
2022-12-23T11:52:15.073Z,7.80
2022-12-23T11:55:07.236Z,7.78
2022-12-23T11:57:58.197Z,7.74
2022-12-23T12:00:56.068Z,7.73
2022-12-23T12:03:50.011Z,7.75
2022-12-23T12:06:49.592Z,7.79
2022-12-23T12:09:45.955Z,7.82
2022-12-23T12:12:57.625Z,7.87
2022-12-23T12:19:20.800Z,8.04
2022-12-23T12:26:02.639Z,8.12
2022-12-23T12:29:16.748Z,8.12
2022-12-23T12:36:14.225Z,8.18
2022-12-23T12:39:05.124Z,8.23
2022-12-23T12:42:03.593Z,8.27
2022-12-23T13:21:13.281Z,9.67
2022-12-23T13:51:52.810Z,9.42
2022-12-23T14:09:04.563Z,9.86
2022-12-23T14:12:00.984Z,9.69
2022-12-23T14:19:59.094Z,9.79
2022-12-23T14:32:54.383Z,10.21
2022-12-23T14:49:41.074Z,10.33
2022-12-23T14:53:45.288Z,10.24
2022-12-23T15:17:45.724Z,9.16
2022-12-23T15:20:37.394Z,9.10
2022-12-23T15:23:28.032Z,9.05
2022-12-23T15:26:18.716Z,9.00
2022-12-23T15:29:10.336Z,8.94
2022-12-23T15:32:18.131Z,8.90
2022-12-23T15:58:14.633Z,8.51
2022-12-23T16:01:05.691Z,8.46
2022-12-23T16:03:58.263Z,8.44
2022-12-23T16:06:51.367Z,8.41
2022-12-23T16:09:41.833Z,8.39
2022-12-23T16:12:34.271Z,8.36
2022-12-23T16:15:27.935Z,8.35
2022-12-23T16:18:23.774Z,8.33
2022-12-23T16:21:17.958Z,8.30
2022-12-23T16:39:02.410Z,8.15
2022-12-23T16:41:53.013Z,8.13
2022-12-23T18:05:14.349Z,7.75
2022-12-23T18:12:38.083Z,7.73
2022-12-23T18:15:31.640Z,7.71
2022-12-23T22:55:36.784Z,7.54
